EDT,Max TemperatureF,Mean TemperatureF,Min TemperatureF,Max Dew PointF,MeanDew PointF,Min DewpointF,Max Humidity, Mean Humidity, Min Humidity, Max Sea Level PressureIn, Mean Sea Level PressureIn, Min Sea Level PressureIn, Max VisibilityMiles, Mean VisibilityMiles, Min VisibilityMiles, Max Wind SpeedMPH, Mean Wind SpeedMPH, Max Gust SpeedMPH,PrecipitationIn, CloudCover, Events, WindDirDegrees
2011-10-1,54,49,44,50,45,39,100,91,77,30.03,29.91,29.74,10,6,2,15,9,23,0.09,8,Rain,325
2011-10-2,53,48,42,50,44,40,100,92,76,29.99,29.91,29.86,10,6,2,16,10,22,0.59,8,Rain,321
2011-10-3,61,56,51,52,50,46,100,90,60,30.13,30.01,29.91,10,7,0,12,6,,0.11,8,Fog-Rain,329
2011-10-4,61,54,48,55,52,47,100,94,83,30.22,30.15,30.08,10,6,0,13,1,18,0.05,6,Fog-Rain,334
2011-10-5,66,53,42,52,44,37,100,82,43,30.41,30.26,30.17,10,8,1,14,2,17,0.00,1,,336
2011-10-6,66,51,36,41,36,25,97,68,21,30.47,30.42,30.36,10,10,10,9,5,,0.00,0,,135
2011-10-7,75,57,41,53,42,33,89,70,26,30.51,30.46,30.43,10,10,10,8,5,,0.00,0,,142
2011-10-8,84,65,48,56,49,45,93,70,29,30.54,30.47,30.40,10,10,10,15,7,,0.00,0,,131
2011-10-9,82,66,51,57,52,48,89,67,33,30.50,30.43,30.36,10,10,10,9,3,,0.00,0,,152
2011-10-10,78,63,48,60,53,47,93,74,43,30.39,30.33,30.25,10,10,10,8,5,,0.00,0,,143
2011-10-11,79,64,52,58,54,50,93,75,40,30.27,30.20,30.13,10,9,6,10,4,,0.00,0,,155
2011-10-12,63,59,55,58,54,48,94,84,62,30.12,30.03,29.89,10,9,5,16,6,21,0.28,5,Rain,153
2011-10-13,66,60,53,61,55,51,94,86,73,29.90,29.75,29.53,10,10,6,13,6,,0.08,8,Rain,149
2011-10-14,66,60,53,63,57,44,96,86,67,29.51,29.42,29.34,10,8,1,15,6,,0.62,7,Rain,157
2011-10-15,53,50,48,47,42,36,90,75,54,29.75,29.54,29.46,10,9,4,16,6,25,0.16,6,Rain,204
2011-10-16,59,50,43,48,42,35,89,74,50,29.84,29.76,29.65,10,9,5,13,3,29,0.09,4,Rain,171
2011-10-17,62,50,39,46,38,28,93,65,30,29.78,29.71,29.67,10,10,10,10,4,24,0.01,2,,194
2011-10-18,63,50,39,47,39,34,93,66,36,29.91,29.85,29.78,10,10,10,9,4,,0.01,3,,172
2011-10-19,64,54,44,56,49,43,100,89,67,29.86,29.65,29.32,10,8,2,14,3,18,0.40,7,Rain-Thunderstorm,313
2011-10-20,55,52,46,54,47,38,100,84,57,29.57,29.33,29.17,10,8,2,16,4,32,0.20,8,Rain-Thunderstorm,181
2011-10-21,52,48,45,45,42,39,93,78,66,30.06,29.89,29.64,10,9,3,10,5,18,0.06,8,Rain,233
2011-10-22,53,48,42,43,41,37,93,77,55,30.15,30.11,30.07,10,10,10,6,1,,0.01,8,Rain,316
2011-10-23,60,48,37,41,38,36,93,74,41,30.17,30.11,30.06,10,10,10,9,4,,0.00,2,,143
2011-10-24,63,52,42,47,42,37,93,72,50,30.08,29.99,29.94,10,10,10,10,7,20,0.00,5,,167
2011-10-25,61,47,35,45,40,33,93,74,42,30.19,30.12,30.04,10,10,10,13,4,22,0.01,3,Rain,291
2011-10-26,55,50,45,52,47,43,100,92,84,30.05,29.82,29.74,10,7,2,12,6,,0.29,8,Rain,298
2011-10-27,44,38,33,42,35,32,100,92,86,30.14,29.91,29.81,10,8,2,14,8,,0.31,8,Rain-Snow,326
2011-10-28,48,37,28,34,31,26,100,83,50,30.30,30.22,30.10,10,9,2,8,2,,0.00,1,,148
2011-10-29,39,34,30,36,33,29,97,89,79,30.24,30.15,30.08,10,10,8,7,2,,0.02,6,Rain,316
2011-10-30,51,39,28,35,31,28,100,84,44,30.33,30.22,30.11,10,7,0,9,1,,0.00,4,Fog,147
2011-10-31,50,39,28,35,31,26,92,71,52,30.34,30.28,30.21,10,10,10,13,6,22,0.00,2,,143